Time;durP1;ratioP1;P1;durP2;ratioP2;P2;SDS_P1;SDS_P2;PMS_P1;PMS_P2;Temp;Humidity;BMP_temperature;BMP_pressure;BME280_temperature;BME280_humidity;BME280_pressure;Samples;Min_cycle;Max_cycle;Signal;HPM_P1;HPM_P2
2023/06/29 00:54:43;;;;;;;;;;;;;;;19.45;100.00;101540.00;13104306;22;20282;-68
2023/06/29 00:59:45;;;;;;;;;;;;;;;19.42;100.00;101524.31;12968419;22;19923;-68
2023/06/29 01:04:47;;;;;;;;;;;;;;;19.32;100.00;101526.06;12990815;22;19951;-68
2023/06/29 01:09:50;;;;;;;;;;;;;;;19.38;100.00;101520.22;12992525;22;19991;-68
2023/06/29 01:14:52;;;;;;;;;;;;;;;19.45;100.00;101524.06;12939670;22;20346;-68
2023/06/29 01:19:55;;;;;;;;;;;;;;;19.46;100.00;101512.47;12965369;22;19998;-68
2023/06/29 01:24:57;;;;;;;;;;;;;;;19.25;100.00;101517.75;12964366;22;19947;-68
2023/06/29 01:30:01;;;;;;;;;;;;;;;19.37;100.00;101510.59;12964337;22;20243;-68
2023/06/29 01:35:04;;;;;;;;;;;;;;;19.38;100.00;101512.25;12991126;22;20344;-68
2023/06/29 01:40:08;;;;;;;;;;;;;;;19.31;100.00;101508.44;12991765;22;19938;-68
2023/06/29 01:45:10;;;;;;;;;;;;;;;19.26;100.00;101502.66;12964236;22;19955;-68
2023/06/29 01:50:13;;;;;;;;;;;;;;;19.31;100.00;101513.75;12964013;22;19943;-68
2023/06/29 01:55:15;;;;;;;;;;;;;;;19.47;100.00;101503.53;12990678;22;20009;-68
2023/06/29 02:00:17;;;;;;;;;;;;;;;19.51;100.00;101503.28;12963724;22;19931;-68
2023/06/29 02:05:21;;;;;;;;;;;;;;;19.60;100.00;101502.50;12991203;22;20002;-68
2023/06/29 02:10:23;;;;;;;;;;;;;;;19.42;100.00;101500.44;12938829;22;19942;-69
2023/06/29 02:15:25;;;;;;;;;;;;;;;19.54;100.00;101498.56;12963066;22;19949;-68
2023/06/29 02:20:28;;;;;;;;;;;;;;;19.66;100.00;101497.50;12938367;22;19981;-68
2023/06/29 02:25:30;;;;;;;;;;;;;;;19.50;100.00;101491.78;12963961;22;19950;-68
2023/06/29 02:30:32;;;;;;;;;;;;;;;19.33;100.00;101482.59;12962980;22;20001;-68
2023/06/29 02:35:34;;;;;;;;;;;;;;;19.26;100.00;101486.75;12990748;22;19943;-68
2023/06/29 02:40:37;;;;;;;;;;;;;;;19.45;100.00;101476.28;12990494;22;19919;-68
2023/06/29 02:45:39;;;;;;;;;;;;;;;19.51;100.00;101479.38;12990424;22;19997;-68
2023/06/29 02:50:41;;;;;;;;;;;;;;;19.53;100.00;101464.16;12963646;22;19942;-68
2023/06/29 02:55:44;;;;;;;;;;;;;;;19.39;100.00;101452.88;12963292;22;19951;-68
2023/06/29 03:00:46;;;;;;;;;;;;;;;19.36;100.00;101450.47;12990243;22;19923;-68
2023/06/29 03:05:48;;;;;;;;;;;;;;;19.45;100.00;101447.06;12963318;22;19973;-68
2023/06/29 03:10:51;;;;;;;;;;;;;;;19.35;100.00;101450.59;12989258;22;20239;-68
2023/06/29 03:15:56;;;;;;;;;;;;;;;19.46;100.00;101448.72;12989979;22;19920;-68
2023/06/29 03:20:59;;;;;;;;;;;;;;;19.36;100.00;101450.47;12962898;22;19919;-68
2023/06/29 03:26:01;;;;;;;;;;;;;;;19.09;100.00;101457.13;12962190;22;20407;-68
2023/06/29 03:31:03;;;;;;;;;;;;;;;19.28;100.00;101450.28;12989708;22;19995;-68
2023/06/29 03:36:09;;;;;;;;;;;;;;;19.25;100.00;101443.44;12962722;22;19927;-68
2023/06/29 03:41:11;;;;;;;;;;;;;;;19.36;100.00;101433.72;12987964;22;19943;-69
2023/06/29 03:46:13;;;;;;;;;;;;;;;19.46;100.00;101434.63;12988879;22;19926;-68
2023/06/29 03:51:16;;;;;;;;;;;;;;;19.41;100.00;101431.50;12988577;22;20319;-68
2023/06/29 03:56:18;;;;;;;;;;;;;;;19.54;100.00;101418.03;12989044;22;19919;-68
2023/06/29 04:01:20;;;;;;;;;;;;;;;19.62;100.00;101419.06;12989153;22;19924;-67
2023/06/29 04:06:22;;;;;;;;;;;;;;;19.75;100.00;101418.84;12988424;22;19919;-67
2023/06/29 04:11:25;;;;;;;;;;;;;;;19.72;100.00;101411.16;12989182;22;19995;-68
2023/06/29 04:16:27;;;;;;;;;;;;;;;19.51;100.00;101413.81;12989146;22;19949;-68
2023/06/29 04:21:29;;;;;;;;;;;;;;;19.62;100.00;101415.56;12989007;22;19926;-68
2023/06/29 04:26:32;;;;;;;;;;;;;;;19.72;100.00;101410.28;12988136;22;20344;-68
2023/06/29 04:31:34;;;;;;;;;;;;;;;19.60;100.00;101402.44;12988984;22;19986;-68
2023/06/29 04:36:36;;;;;;;;;;;;;;;19.66;100.00;101403.69;12988099;22;20308;-68
2023/06/29 04:41:40;;;;;;;;;;;;;;;19.76;100.00;101404.59;12992979;22;19926;-68
2023/06/29 04:46:42;;;;;;;;;;;;;;;19.72;100.00;101404.97;12965715;22;19951;-68
2023/06/29 04:51:45;;;;;;;;;;;;;;;19.93;100.00;101399.66;12940831;22;19919;-68
2023/06/29 04:56:47;;;;;;;;;;;;;;;19.88;100.00;101389.41;12991758;22;20303;-68
2023/06/29 05:01:49;;;;;;;;;;;;;;;19.92;100.00;101393.50;12992494;22;19919;-68
2023/06/29 05:06:52;;;;;;;;;;;;;;;20.01;100.00;101391.84;12965729;22;19919;-68
2023/06/29 05:11:54;;;;;;;;;;;;;;;20.11;100.00;101386.56;12992480;22;19919;-68
2023/06/29 05:16:57;;;;;;;;;;;;;;;20.16;100.00;101392.31;12992051;22;19930;-68
2023/06/29 05:22:00;;;;;;;;;;;;;;;20.10;100.00;101390.19;12992090;22;19919;-68
2023/06/29 05:27:03;;;;;;;;;;;;;;;20.17;100.00;101381.53;12991330;22;20316;-68
2023/06/29 05:32:05;;;;;;;;;;;;;;;20.22;100.00;101387.28;12991313;22;19926;-68
2023/06/29 05:37:07;;;;;;;;;;;;;;;20.38;100.00;101380.59;12991869;22;19947;-68
2023/06/29 05:42:09;;;;;;;;;;;;;;;20.49;100.00;101376.94;12990983;22;19978;-68
2023/06/29 05:47:12;;;;;;;;;;;;;;;20.77;100.00;101367.34;12964916;22;19943;-68
2023/06/29 05:52:14;;;;;;;;;;;;;;;20.77;100.00;101365.50;12989940;22;19986;-68
2023/06/29 05:57:16;;;;;;;;;;;;;;;20.75;100.00;101371.97;12991047;22;19958;-68
2023/06/29 06:02:19;;;;;;;;;;;;;;;20.80;100.00;101367.06;12990579;22;20355;-68
2023/06/29 06:07:28;;;;;;;;;;;;;;;20.87;100.00;101357.50;12991328;22;19954;-68
2023/06/29 06:12:30;;;;;;;;;;;;;;;21.05;100.00;101359.47;12990459;22;20336;-69
2023/06/29 06:17:32;;;;;;;;;;;;;;;21.27;100.00;101359.13;12963527;22;19986;-68
2023/06/29 06:22:35;;;;;;;;;;;;;;;21.19;100.00;101352.84;12990841;22;19919;-68
2023/06/29 06:27:37;;;;;;;;;;;;;;;21.23;100.00;101352.44;12963345;22;20304;-68
2023/06/29 06:32:39;;;;;;;;;;;;;;;21.45;100.00;101359.22;12990744;22;19977;-68
2023/06/29 06:37:42;;;;;;;;;;;;;;;21.47;96.20;101359.09;12964047;22;19923;-68
2023/06/29 06:42:44;;;;;;;;;;;;;;;21.40;100.00;101357.97;12963688;22;19926;-69
2023/06/29 06:47:46;;;;;;;;;;;;;;;21.39;97.50;101353.63;12989788;22;19937;-68
2023/06/29 06:52:49;;;;;;;;;;;;;;;21.64;94.76;101355.66;12990331;22;19973;-68
2023/06/29 06:57:52;;;;;;;;;;;;;;;21.66;92.11;101345.69;12963082;22;19954;-68
2023/06/29 07:02:54;;;;;;;;;;;;;;;21.89;91.48;101350.66;12989153;22;20301;-68
2023/06/29 07:07:57;;;;;;;;;;;;;;;21.94;90.65;101345.69;12990118;22;20033;-68
2023/06/29 07:12:59;;;;;;;;;;;;;;;21.79;88.81;101352.53;12990047;22;19919;-68
2023/06/29 07:18:01;;;;;;;;;;;;;;;21.90;87.54;101352.31;12989928;22;19947;-68
2023/06/29 07:23:04;;;;;;;;;;;;;;;21.75;90.24;101353.78;12989686;22;19926;-69
2023/06/29 07:28:09;;;;;;;;;;;;;;;21.87;90.93;101340.13;12989738;22;19919;-69
2023/06/29 07:33:11;;;;;;;;;;;;;;;21.98;91.74;101347.06;12989657;22;19943;-69
2023/06/29 07:38:13;;;;;;;;;;;;;;;22.26;87.52;101341.72;12962028;22;19920;-69
2023/06/29 07:43:16;;;;;;;;;;;;;;;22.41;86.76;101342.06;12989441;22;19926;-69
2023/06/29 07:48:18;;;;;;;;;;;;;;;22.41;84.17;101340.22;12988672;22;20244;-69
2023/06/29 07:53:20;;;;;;;;;;;;;;;22.80;82.20;101329.19;12989312;22;19927;-69
2023/06/29 07:58:23;;;;;;;;;;;;;;;22.76;84.15;101329.66;12988676;22;19978;-69
2023/06/29 08:03:28;;;;;;;;;;;;;;;22.93;81.19;101322.59;12989177;22;19994;-69
2023/06/29 08:08:30;;;;;;;;;;;;;;;23.03;78.52;101330.50;12988451;22;20327;-69
2023/06/29 08:13:34;;;;;;;;;;;;;;;23.07;80.85;101322.06;12989792;22;20337;-69
2023/06/29 08:18:36;;;;;;;;;;;;;;;22.97;76.39;101323.97;12941092;22;19927;-68
2023/06/29 08:23:38;;;;;;;;;;;;;;;23.37;75.33;101322.59;12993312;22;19920;-69
2023/06/29 08:28:41;;;;;;;;;;;;;;;24.18;74.10;101317.69;12993350;22;19982;-69
2023/06/29 08:33:43;;;;;;;;;;;;;;;24.82;70.12;101312.56;12990639;22;19926;-69
2023/06/29 08:38:46;;;;;;;;;;;;;;;25.19;69.86;101305.78;12992825;22;19919;-69
2023/06/29 08:43:49;;;;;;;;;;;;;;;25.51;65.77;101306.69;12966144;22;19954;-69
2023/06/29 08:48:51;;;;;;;;;;;;;;;26.38;63.65;101313.72;12991986;22;20321;-69
2023/06/29 08:53:53;;;;;;;;;;;;;;;25.53;63.00;101305.50;12964541;22;20283;-70
2023/06/29 08:58:55;;;;;;;;;;;;;;;24.70;63.62;101309.38;12964904;22;19939;-69
2023/06/29 09:03:58;;;;;;;;;;;;;;;25.01;65.13;101309.47;12964986;22;19919;-69
2023/06/29 09:09:01;;;;;;;;;;;;;;;26.19;62.69;101307.84;12992542;22;19969;-69
2023/06/29 09:14:07;;;;;;;;;;;;;;;25.96;63.98;101302.47;12965049;22;19919;-70
2023/06/29 09:19:09;;;;;;;;;;;;;;;26.28;62.93;101303.25;12992336;22;20372;-70
2023/06/29 09:24:11;;;;;;;;;;;;;;;25.84;61.60;101298.47;12965307;22;19998;-71
2023/06/29 09:29:14;;;;;;;;;;;;;;;26.54;61.67;101292.13;12964427;22;20313;-70
2023/06/29 09:34:25;;;;;;;;;;;;;;;26.46;60.79;101290.38;12992001;22;20010;-70
2023/06/29 09:39:27;;;;;;;;;;;;;;;26.25;61.22;101290.19;12964891;22;19947;-70
2023/06/29 09:44:29;;;;;;;;;;;;;;;26.35;61.78;101282.75;12990951;22;20244;-69
2023/06/29 09:49:43;;;;;;;;;;;;;;;26.15;62.01;101298.47;12963967;22;19993;-70
2023/06/29 09:54:45;;;;;;;;;;;;;;;26.39;60.64;101284.03;12990868;22;20283;-70
2023/06/29 09:59:47;;;;;;;;;;;;;;;26.64;58.60;101287.38;12990599;22;19950;-70
2023/06/29 10:04:50;;;;;;;;;;;;;;;27.62;56.20;101289.97;12991241;22;20029;-70
2023/06/29 10:09:56;;;;;;;;;;;;;;;25.77;60.03;101295.66;12990523;22;19947;-71
2023/06/29 10:15:00;;;;;;;;;;;;;;;25.62;59.64;101289.38;12964524;22;19990;-70
2023/06/29 10:20:03;;;;;;;;;;;;;;;25.50;60.01;101291.63;12963645;22;20226;-70
2023/06/29 10:25:06;;;;;;;;;;;;;;;26.52;59.80;101283.44;12963975;22;19919;-70
2023/06/29 10:30:09;;;;;;;;;;;;;;;26.82;58.73;101286.22;12990119;22;19925;-70
2023/06/29 10:35:12;;;;;;;;;;;;;;;26.50;58.38;101288.16;12990509;22;19926;-70
2023/06/29 10:40:14;;;;;;;;;;;;;;;27.25;56.65;101275.63;12990717;22;19926;-71
2023/06/29 10:45:20;;;;;;;;;;;;;;;27.27;55.33;101264.69;12990491;22;19927;-71
2023/06/29 10:50:32;;;;;;;;;;;;;;;27.15;56.47;101270.56;12989652;22;20256;-70
2023/06/29 10:55:42;;;;;;;;;;;;;;;25.88;57.06;101279.19;12938214;22;19919;-72
2023/06/29 11:00:44;;;;;;;;;;;;;;;25.93;59.44;101278.66;12963338;22;20045;-69
2023/06/29 11:05:48;;;;;;;;;;;;;;;25.95;57.12;101274.78;12990096;22;20006;-70
2023/06/29 11:10:50;;;;;;;;;;;;;;;26.30;57.26;101269.84;12962983;22;19947;-77
2023/06/29 11:15:56;;;;;;;;;;;;;;;26.04;57.96;101270.22;12963087;22;20224;-72
2023/06/29 11:21:02;;;;;;;;;;;;;;;26.20;58.43;101265.75;12963611;22;19919;-71
2023/06/29 11:26:04;;;;;;;;;;;;;;;25.69;57.94;101271.59;12989763;22;19951;-70
2023/06/29 11:31:06;;;;;;;;;;;;;;;25.75;57.35;101274.38;12989731;22;19990;-71
2023/06/29 11:36:08;;;;;;;;;;;;;;;25.76;58.77;101270.69;12959048;22;19920;-71
2023/06/29 11:41:11;;;;;;;;;;;;;;;26.21;58.22;101272.78;12989448;22;19927;-70
2023/06/29 11:46:14;;;;;;;;;;;;;;;25.93;58.95;101265.25;12989150;22;19959;-71
2023/06/29 11:51:16;;;;;;;;;;;;;;;25.81;58.53;101256.78;12989044;22;19973;-70
2023/06/29 11:56:24;;;;;;;;;;;;;;;26.57;57.57;101254.19;12961626;22;19950;-70
2023/06/29 12:01:27;;;;;;;;;;;;;;;26.97;56.83;101245.94;12989228;22;19929;-71
2023/06/29 12:06:29;;;;;;;;;;;;;;;26.77;55.72;101246.47;12988340;22;20005;-71
2023/06/29 12:11:31;;;;;;;;;;;;;;;26.36;57.08;101243.31;12962491;22;19986;-71
2023/06/29 12:16:37;;;;;;;;;;;;;;;26.03;57.03;101240.91;12988360;22;20366;-70
2023/06/29 12:21:42;;;;;;;;;;;;;;;26.12;58.25;101242.50;13010322;22;19982;-71
2023/06/29 12:26:44;;;;;;;;;;;;;;;25.83;56.00;101241.31;12988917;22;19998;-75
2023/06/29 12:31:46;;;;;;;;;;;;;;;25.91;57.93;101227.88;12961392;22;20002;-71
2023/06/29 12:36:49;;;;;;;;;;;;;;;26.65;56.44;101226.47;12988819;22;19919;-71
2023/06/29 12:41:52;;;;;;;;;;;;;;;26.76;56.50;101227.84;12988039;22;20425;-70
2023/06/29 12:46:56;;;;;;;;;;;;;;;26.78;55.88;101220.44;12987869;22;20249;-73
2023/06/29 12:51:58;;;;;;;;;;;;;;;27.00;55.42;101216.81;12962380;22;19926;-71
2023/06/29 12:57:00;;;;;;;;;;;;;;;27.38;53.42;101222.06;12987866;22;19939;-72
2023/06/29 13:02:05;;;;;;;;;;;;;;;27.83;54.26;101221.94;12991268;22;20347;-70
2023/06/29 13:07:07;;;;;;;;;;;;;;;27.65;55.15;101222.38;12992395;22;19930;-71
2023/06/29 13:12:14;;;;;;;;;;;;;;;28.55;54.63;101206.63;12997412;22;19926;-66
2023/06/29 13:17:16;;;;;;;;;;;;;;;29.15;54.13;101208.81;13030405;22;19919;-67
2023/06/29 13:22:19;;;;;;;;;;;;;;;30.08;50.86;101201.00;13056271;22;19972;-66
2023/06/29 13:27:22;;;;;;;;;;;;;;;29.52;52.27;101198.59;13056042;22;20002;-67
2023/06/29 13:32:24;;;;;;;;;;;;;;;29.70;50.56;101193.44;13003803;22;19926;-67
2023/06/29 13:37:28;;;;;;;;;;;;;;;29.30;50.56;101203.31;13028949;22;19943;-67
2023/06/29 13:42:30;;;;;;;;;;;;;;;28.19;53.54;101186.06;13028038;22;20398;-66
2023/06/29 13:47:33;;;;;;;;;;;;;;;27.29;55.56;101190.13;13056041;22;19989;-66
2023/06/29 13:52:35;;;;;;;;;;;;;;;26.52;55.61;101187.59;13055627;22;20281;-66
2023/06/29 13:57:37;;;;;;;;;;;;;;;26.13;57.10;101196.69;13055367;22;19942;-67
2023/06/29 14:02:40;;;;;;;;;;;;;;;26.19;58.04;101183.56;13026590;22;19919;-66
2023/06/29 14:07:42;;;;;;;;;;;;;;;25.86;60.00;101184.66;13054311;22;19986;-66
2023/06/29 14:12:44;;;;;;;;;;;;;;;25.56;59.27;101223.91;13053788;22;20229;-67
2023/06/29 14:17:46;;;;;;;;;;;;;;;23.41;71.51;101245.63;13055354;22;19918;-67
2023/06/29 14:22:49;;;;;;;;;;;;;;;22.67;80.60;101251.38;13028521;22;19957;-66
2023/06/29 14:27:51;;;;;;;;;;;;;;;21.96;92.43;101266.41;13027903;22;20391;-66
2023/06/29 14:32:53;;;;;;;;;;;;;;;21.24;100.00;101260.88;13028210;22;19919;-67
2023/06/29 14:37:56;;;;;;;;;;;;;;;21.64;100.00;101266.91;13027950;22;19985;-68
2023/06/29 14:43:15;;;;;;;;;;;;;;;21.20;100.00;101262.19;13055111;22;19941;-68
2023/06/29 14:48:17;;;;;;;;;;;;;;;21.03;100.00;101263.78;13054816;22;20235;-68
2023/06/29 14:53:20;;;;;;;;;;;;;;;21.24;100.00;101249.41;13054939;22;20300;-67
2023/06/29 14:58:22;;;;;;;;;;;;;;;21.41;100.00;101232.63;13027830;22;19989;-68
2023/06/29 15:03:24;;;;;;;;;;;;;;;21.73;100.00;101236.69;13002359;22;19950;-66
2023/06/29 15:08:27;;;;;;;;;;;;;;;21.79;99.88;101229.94;13054446;22;19997;-67
2023/06/29 15:13:29;;;;;;;;;;;;;;;21.45;100.00;101235.84;13027336;22;19942;-66
2023/06/29 15:18:32;;;;;;;;;;;;;;;21.64;97.53;101225.09;13054036;22;20007;-67
2023/06/29 15:23:39;;;;;;;;;;;;;;;21.87;94.53;101224.66;13053033;22;19925;-67
2023/06/29 15:28:41;;;;;;;;;;;;;;;21.85;97.81;101222.13;13053857;22;19925;-67
2023/06/29 15:33:43;;;;;;;;;;;;;;;22.24;91.15;101211.19;13053797;22;19925;-68
2023/06/29 15:38:46;;;;;;;;;;;;;;;22.19;95.69;101213.47;13026485;22;19918;-68
2023/06/29 15:43:48;;;;;;;;;;;;;;;22.23;89.77;101206.00;13053581;22;20009;-68
2023/06/29 15:48:50;;;;;;;;;;;;;;;22.43;93.34;101196.84;13052748;22;20415;-68
2023/06/29 15:53:53;;;;;;;;;;;;;;;22.03;94.42;101192.00;13052766;22;20312;-68
2023/06/29 15:58:56;;;;;;;;;;;;;;;22.56;93.09;101199.09;13052559;22;20243;-68
2023/06/29 16:03:58;;;;;;;;;;;;;;;23.29;87.80;101188.97;13053250;22;19930;-68
2023/06/29 16:09:00;;;;;;;;;;;;;;;22.98;90.17;101186.78;13052445;22;19970;-68
2023/06/29 16:14:03;;;;;;;;;;;;;;;22.86;95.25;101177.41;13025248;22;20379;-68
2023/06/29 16:19:05;;;;;;;;;;;;;;;23.62;87.39;101181.88;13053326;22;19938;-69
2023/06/29 16:24:07;;;;;;;;;;;;;;;23.65;91.63;101170.00;13053145;22;19957;-68
2023/06/29 16:29:10;;;;;;;;;;;;;;;23.69;88.24;101177.53;13052362;22;20280;-68
2023/06/29 16:34:12;;;;;;;;;;;;;;;23.65;87.75;101175.34;13054344;22;19950;-68
2023/06/29 16:39:15;;;;;;;;;;;;;;;23.67;88.55;101173.34;13030250;22;19923;-68
2023/06/29 16:44:18;;;;;;;;;;;;;;;23.57;86.00;101173.53;13056331;22;20314;-69
2023/06/29 16:49:20;;;;;;;;;;;;;;;23.48;87.02;101179.84;13057063;22;19986;-69
2023/06/29 16:54:23;;;;;;;;;;;;;;;23.22;95.06;101185.25;13057019;22;19985;-68
2023/06/29 16:59:25;;;;;;;;;;;;;;;22.61;91.80;101185.25;13056871;22;19949;-68
2023/06/29 17:04:29;;;;;;;;;;;;;;;22.19;91.47;101188.63;13056735;22;20006;-68
2023/06/29 17:09:32;;;;;;;;;;;;;;;22.53;89.01;101191.41;13055894;22;20006;-68
2023/06/29 17:14:34;;;;;;;;;;;;;;;22.68;91.01;101190.81;13055644;22;19990;-68
2023/06/29 17:19:38;;;;;;;;;;;;;;;22.19;93.45;101197.47;13055909;22;20292;-68
2023/06/29 17:24:41;;;;;;;;;;;;;;;21.87;91.71;101206.84;13056188;22;19972;-68
2023/06/29 17:29:43;;;;;;;;;;;;;;;21.68;90.54;101207.00;13055477;22;19942;-68
2023/06/29 17:34:46;;;;;;;;;;;;;;;21.40;88.06;101216.78;13028291;22;20350;-67
2023/06/29 17:39:48;;;;;;;;;;;;;;;21.50;87.92;101209.63;13056044;22;19942;-68
2023/06/29 17:44:50;;;;;;;;;;;;;;;21.61;88.71;101209.41;13055107;22;20424;-68
2023/06/29 17:49:52;;;;;;;;;;;;;;;20.95;85.87;101215.75;13027954;22;20243;-67
2023/06/29 17:54:55;;;;;;;;;;;;;;;21.31;85.87;101215.88;13055743;22;19946;-67
2023/06/29 17:59:57;;;;;;;;;;;;;;;21.63;83.02;101220.75;13055677;22;19918;-67
2023/06/29 18:04:59;;;;;;;;;;;;;;;21.39;84.78;101223.13;13054587;22;19918;-67
2023/06/29 18:10:06;;;;;;;;;;;;;;;21.59;85.71;101221.22;13054105;22;19923;-67
2023/06/29 18:15:09;;;;;;;;;;;;;;;21.11;87.58;101215.13;13055405;22;19923;-67
2023/06/29 18:20:11;;;;;;;;;;;;;;;21.36;88.51;101224.25;13055300;22;19926;-67
2023/06/29 18:25:13;;;;;;;;;;;;;;;20.70;93.34;101226.03;13054379;22;20002;-67
2023/06/29 18:30:16;;;;;;;;;;;;;;;20.66;95.60;101243.28;13054965;22;19919;-67
2023/06/29 18:35:18;;;;;;;;;;;;;;;20.41;94.90;101244.69;13053996;22;19927;-67
2023/06/29 18:40:25;;;;;;;;;;;;;;;20.32;95.33;101241.03;13054024;22;19949;-67
2023/06/29 18:45:29;;;;;;;;;;;;;;;19.53;99.65;101260.50;13052547;22;19925;-67
2023/06/29 18:50:31;;;;;;;;;;;;;;;19.95;97.80;101257.69;13053599;22;20398;-67
2023/06/29 18:55:35;;;;;;;;;;;;;;;19.92;97.88;101268.59;13053293;22;19968;-68
2023/06/29 19:00:38;;;;;;;;;;;;;;;19.08;100.00;101282.09;13053936;22;19981;-67
2023/06/29 19:05:40;;;;;;;;;;;;;;;19.60;100.00;101274.94;13053622;22;19962;-67
2023/06/29 19:10:42;;;;;;;;;;;;;;;19.54;97.24;101282.59;13053119;22;20243;-67
2023/06/29 19:15:45;;;;;;;;;;;;;;;19.41;98.57;101278.34;13026272;22;19918;-67
2023/06/29 19:20:47;;;;;;;;;;;;;;;19.28;97.95;101291.00;13053971;22;19923;-67
2023/06/29 19:25:50;;;;;;;;;;;;;;;18.99;99.50;101298.81;13026776;22;19993;-67
2023/06/29 19:30:52;;;;;;;;;;;;;;;18.90;100.00;101311.06;13052898;22;19954;-67
2023/06/29 19:35:54;;;;;;;;;;;;;;;18.44;100.00;101339.59;13026581;22;19950;-68
2023/06/29 19:40:56;;;;;;;;;;;;;;;18.56;100.00;101340.38;13052789;22;20367;-67
2023/06/29 19:45:59;;;;;;;;;;;;;;;18.32;100.00;101344.06;13053362;22;19958;-67
2023/06/29 19:51:01;;;;;;;;;;;;;;;18.60;100.00;101340.97;13053482;22;19919;-67
2023/06/29 19:56:03;;;;;;;;;;;;;;;18.28;100.00;101361.19;13052626;22;20375;-67
2023/06/29 20:01:06;;;;;;;;;;;;;;;17.67;100.00;101374.00;13052544;22;20221;-68
2023/06/29 20:06:09;;;;;;;;;;;;;;;17.90;100.00;101374.88;13026307;22;19923;-67
2023/06/29 20:11:12;;;;;;;;;;;;;;;17.56;100.00;101378.31;13025479;22;19930;-67
2023/06/29 20:16:14;;;;;;;;;;;;;;;17.62;100.00;101384.97;13053250;22;19938;-67
2023/06/29 20:21:17;;;;;;;;;;;;;;;18.06;100.00;101391.22;13053177;22;19923;-67
2023/06/29 20:26:19;;;;;;;;;;;;;;;18.09;100.00;101395.44;13053263;22;19941;-67
2023/06/29 20:31:22;;;;;;;;;;;;;;;17.80;100.00;101394.13;13052203;22;20399;-67
2023/06/29 20:36:25;;;;;;;;;;;;;;;17.49;100.00;101390.34;13052237;22;19919;-67
2023/06/29 20:41:27;;;;;;;;;;;;;;;17.79;100.00;101379.19;13052918;22;19946;-67
2023/06/29 20:46:30;;;;;;;;;;;;;;;17.58;100.00;101380.84;13052871;22;19919;-68
2023/06/29 20:51:35;;;;;;;;;;;;;;;17.77;100.00;101388.19;13051982;22;20546;-67
2023/06/29 20:56:39;;;;;;;;;;;;;;;17.87;100.00;101388.34;13052725;22;19947;-67
2023/06/29 21:01:42;;;;;;;;;;;;;;;18.01;99.99;101388.09;13052181;22;20384;-67
2023/06/29 21:06:44;;;;;;;;;;;;;;;18.05;100.00;101396.66;13052631;22;20042;-67
2023/06/29 21:11:46;;;;;;;;;;;;;;;17.81;99.77;101379.88;13052000;22;19990;-67
2023/06/29 21:16:49;;;;;;;;;;;;;;;17.41;100.00;101384.81;13052417;22;19929;-67
2023/06/29 21:21:51;;;;;;;;;;;;;;;17.76;97.42;101384.72;13054763;22;19919;-67
2023/06/29 21:26:53;;;;;;;;;;;;;;;17.56;99.85;101391.56;13055379;22;20320;-67
2023/06/29 21:31:57;;;;;;;;;;;;;;;17.72;99.46;101391.22;13028416;22;19993;-68
2023/06/29 21:36:59;;;;;;;;;;;;;;;17.78;97.93;101393.38;13055248;22;19922;-67
2023/06/29 21:42:01;;;;;;;;;;;;;;;17.83;97.45;101388.53;13028778;22;19981;-67
2023/06/29 21:47:04;;;;;;;;;;;;;;;17.90;97.91;101380.16;13028776;22;19930;-67
2023/06/29 21:52:06;;;;;;;;;;;;;;;17.38;100.00;101385.91;13028878;22;19964;-67
2023/06/29 21:57:09;;;;;;;;;;;;;;;17.42;99.80;101384.69;13055088;22;19923;-67
2023/06/29 22:02:11;;;;;;;;;;;;;;;17.22;100.00;101394.16;13055625;22;19982;-67
2023/06/29 22:07:13;;;;;;;;;;;;;;;17.50;99.86;101396.47;13055393;22;19919;-68
2023/06/29 22:12:17;;;;;;;;;;;;;;;17.57;99.08;101395.91;13054772;22;19919;-68
2023/06/29 22:17:20;;;;;;;;;;;;;;;17.80;96.44;101395.91;13054532;22;20284;-68
2023/06/29 22:22:22;;;;;;;;;;;;;;;17.42;98.31;101386.50;13055199;22;19986;-67
2023/06/29 22:27:24;;;;;;;;;;;;;;;17.33;100.00;101385.41;13055008;22;19923;-67
2023/06/29 22:32:27;;;;;;;;;;;;;;;17.83;97.11;101375.31;13054043;22;19926;-67
2023/06/29 22:37:29;;;;;;;;;;;;;;;17.57;98.02;101366.78;13054819;22;19973;-68
2023/06/29 22:42:31;;;;;;;;;;;;;;;17.52;96.69;101350.41;13054827;22;19964;-68
2023/06/29 22:47:33;;;;;;;;;;;;;;;17.21;99.53;101359.88;13053812;22;19925;-68
2023/06/29 22:52:36;;;;;;;;;;;;;;;17.28;100.00;101369.00;13053844;22;19918;-67
2023/06/29 22:57:38;;;;;;;;;;;;;;;17.27;99.95;101359.41;13053733;22;20239;-67
2023/06/29 23:02:40;;;;;;;;;;;;;;;17.59;98.34;101361.38;13027362;22;19994;-67
2023/06/29 23:07:46;;;;;;;;;;;;;;;17.40;98.84;101365.44;13054177;22;19919;-68
2023/06/29 23:12:48;;;;;;;;;;;;;;;17.18;98.92;101370.69;13053232;22;19993;-68
2023/06/29 23:17:50;;;;;;;;;;;;;;;17.24;95.30;101363.13;13040735;22;20221;-67
2023/06/29 23:22:53;;;;;;;;;;;;;;;17.44;93.58;101360.75;13053230;22;19926;-67
2023/06/29 23:27:55;;;;;;;;;;;;;;;17.38;91.20;101367.38;13053871;22;19942;-68
2023/06/29 23:32:57;;;;;;;;;;;;;;;17.24;93.57;101371.06;13053600;22;19938;-68
2023/06/29 23:38:00;;;;;;;;;;;;;;;17.12;90.20;101368.53;13053693;22;19919;-68
2023/06/29 23:43:06;;;;;;;;;;;;;;;16.99;88.48;101363.31;13053635;22;19994;-67
2023/06/29 23:48:09;;;;;;;;;;;;;;;16.99;87.24;101358.03;13053500;22;20355;-67
2023/06/29 23:53:14;;;;;;;;;;;;;;;17.25;87.38;101356.88;13052757;22;20239;-67
2023/06/29 23:58:17;;;;;;;;;;;;;;;17.33;87.98;101356.31;13052811;22;20009;-67
